RYR7PJ EDLV-LICT
Flight info
| Callsign | RYR7PJ |
|---|---|
| Flight time | 2h 15m |
| Altitude | 37000 |
| Route | VEBAK4S VEBAK Z283 RITAX UT27 ROUSY DCT GTQ DCT DEVDI DCT ODINA DCT BETEN DCT RONAB DCT ADUKA |
| Aircraft | B738/M-SADFGIJ1LRWY/SB1 |
Departure
| Time | 2026-04-24 14:42 |
|---|---|
| Airport | Weeze (Niederrhein) Airport (EDLV) |
Arrival
| Time | 2026-04-24 16:57 |
|---|---|
| Airport | Vincenzo Florio Airport Trapani-Birgi (LICT) |
| Time | Latitude | Longitude | Altitude | Speed | Heading |
|---|---|---|---|---|---|
| 2026-04-24 14:12 | 51.59995 | 6.14870 | 112 ft | 0 kts | 91° |
| 2026-04-24 14:35 | 51.59996 | 6.14846 | 110 ft | 4 kts | 97° |
| 2026-04-24 14:35 | 51.60003 | 6.14809 | 111 ft | 4 kts | 142° |
| 2026-04-24 14:35 | 51.60019 | 6.14801 | 110 ft | 4 kts | 178° |
| 2026-04-24 14:36 | 51.60041 | 6.14791 | 111 ft | 4 kts | 121° |
| 2026-04-24 14:36 | 51.60046 | 6.14752 | 110 ft | 4 kts | 89° |
| 2026-04-24 14:36 | 51.60046 | 6.14738 | 109 ft | 0 kts | 91° |
| 2026-04-24 14:38 | 51.60046 | 6.14741 | 110 ft | 1 kts | 91° |
| 2026-04-24 14:38 | 51.60045 | 6.14783 | 109 ft | 6 kts | 92° |
| 2026-04-24 14:39 | 51.60043 | 6.14884 | 112 ft | 12 kts | 92° |
| 2026-04-24 14:39 | 51.60039 | 6.15049 | 112 ft | 18 kts | 92° |
| 2026-04-24 14:39 | 51.60035 | 6.15261 | 114 ft | 19 kts | 92° |
| 2026-04-24 14:39 | 51.60030 | 6.15477 | 113 ft | 20 kts | 92° |
| 2026-04-24 14:40 | 51.60025 | 6.15714 | 115 ft | 21 kts | 92° |
| 2026-04-24 14:40 | 51.60033 | 6.15926 | 113 ft | 14 kts | 47° |
| 2026-04-24 14:40 | 51.60125 | 6.15949 | 113 ft | 13 kts | 2° |
| 2026-04-24 14:40 | 51.60206 | 6.15912 | 112 ft | 13 kts | 292° |
| 2026-04-24 14:41 | 51.60213 | 6.15747 | 116 ft | 39 kts | 272° |
| 2026-04-24 14:41 | 51.60231 | 6.14937 | 111 ft | 105 kts | 272° |
| 2026-04-24 14:41 | 51.60264 | 6.13481 | 118 ft | 157 kts | 272° |
| 2026-04-24 14:41 | 51.60314 | 6.11617 | 571 ft | 165 kts | 276° |
| 2026-04-24 14:42 | 51.60610 | 6.09832 | 1244 ft | 172 kts | 297° |
| 2026-04-24 14:42 | 51.61449 | 6.08311 | 1669 ft | 192 kts | 325° |
| 2026-04-24 14:42 | 51.62602 | 6.07082 | 2079 ft | 206 kts | 330° |
| 2026-04-24 14:42 | 51.63986 | 6.06359 | 2527 ft | 217 kts | 1° |
| 2026-04-24 14:43 | 51.65425 | 6.06970 | 3434 ft | 214 kts | 28° |
| 2026-04-24 14:43 | 51.66422 | 6.08759 | 4120 ft | 226 kts | 67° |
| 2026-04-24 14:43 | 51.66526 | 6.11305 | 4832 ft | 236 kts | 100° |
| 2026-04-24 14:43 | 51.65851 | 6.13747 | 5582 ft | 242 kts | 118° |
| 2026-04-24 14:44 | 51.64873 | 6.15989 | 6275 ft | 249 kts | 131° |
| 2026-04-24 14:44 | 51.63362 | 6.17362 | 6934 ft | 257 kts | 170° |
| 2026-04-24 14:44 | 51.61574 | 6.17310 | 7612 ft | 262 kts | 185° |
| 2026-04-24 14:44 | 51.59678 | 6.17013 | 7839 ft | 285 kts | 186° |
| 2026-04-24 14:45 | 51.57663 | 6.16688 | 8378 ft | 295 kts | 186° |
| 2026-04-24 14:45 | 51.55608 | 6.16365 | 9117 ft | 298 kts | 186° |
| 2026-04-24 14:45 | 51.53542 | 6.16053 | 9918 ft | 299 kts | 186° |
| 2026-04-24 14:45 | 51.51460 | 6.15748 | 10564 ft | 304 kts | 186° |
| 2026-04-24 14:46 | 51.49284 | 6.15436 | 10768 ft | 326 kts | 186° |
| 2026-04-24 14:46 | 51.46952 | 6.15108 | 10973 ft | 345 kts | 185° |
| 2026-04-24 14:46 | 51.44504 | 6.14769 | 11351 ft | 357 kts | 185° |
| 2026-04-24 14:46 | 51.42032 | 6.14431 | 12133 ft | 358 kts | 186° |
| 2026-04-24 14:47 | 51.39529 | 6.14091 | 12728 ft | 364 kts | 186° |
| 2026-04-24 14:47 | 51.37017 | 6.13750 | 13593 ft | 362 kts | 186° |
| 2026-04-24 14:47 | 51.34488 | 6.13407 | 14248 ft | 367 kts | 186° |
| 2026-04-24 14:47 | 51.31934 | 6.13061 | 14933 ft | 369 kts | 186° |
| 2026-04-24 14:48 | 51.29368 | 6.12714 | 15646 ft | 371 kts | 186° |
| 2026-04-24 14:48 | 51.26789 | 6.12367 | 16381 ft | 373 kts | 186° |
| 2026-04-24 14:48 | 51.24198 | 6.12017 | 17073 ft | 375 kts | 186° |
| 2026-04-24 14:48 | 51.21585 | 6.11665 | 17747 ft | 378 kts | 186° |
| 2026-04-24 14:49 | 51.18954 | 6.11311 | 18427 ft | 381 kts | 186° |
| 2026-04-24 14:49 | 51.16302 | 6.10954 | 19016 ft | 384 kts | 186° |
| 2026-04-24 14:49 | 51.13641 | 6.10597 | 19640 ft | 385 kts | 186° |
| 2026-04-24 14:49 | 51.11000 | 6.10243 | 20231 ft | 387 kts | 187° |
| 2026-04-24 14:50 | 51.08313 | 6.09884 | 20803 ft | 389 kts | 187° |
| 2026-04-24 14:50 | 51.05605 | 6.09521 | 21362 ft | 392 kts | 187° |
| 2026-04-24 14:50 | 51.02897 | 6.08995 | 21948 ft | 393 kts | 188° |
| 2026-04-24 14:50 | 51.00166 | 6.08803 | 22605 ft | 394 kts | 183° |
| 2026-04-24 14:51 | 50.97418 | 6.08877 | 23186 ft | 396 kts | 181° |
| 2026-04-24 14:51 | 50.94648 | 6.09028 | 23698 ft | 400 kts | 181° |
| 2026-04-24 14:51 | 50.91859 | 6.09179 | 24135 ft | 403 kts | 181° |
| 2026-04-24 14:51 | 50.89051 | 6.09280 | 24574 ft | 404 kts | 182° |
| 2026-04-24 14:52 | 50.86235 | 6.09331 | 25034 ft | 406 kts | 183° |
| 2026-04-24 14:52 | 50.83404 | 6.09363 | 25466 ft | 408 kts | 183° |
| 2026-04-24 14:52 | 50.80562 | 6.09393 | 25877 ft | 410 kts | 183° |
| 2026-04-24 14:52 | 50.77701 | 6.09427 | 26281 ft | 412 kts | 183° |
| 2026-04-24 14:53 | 50.74824 | 6.09464 | 26637 ft | 415 kts | 183° |
| 2026-04-24 14:53 | 50.71920 | 6.09506 | 26972 ft | 419 kts | 183° |
| 2026-04-24 14:53 | 50.68995 | 6.09551 | 27361 ft | 421 kts | 182° |
| 2026-04-24 14:53 | 50.66060 | 6.09599 | 27755 ft | 423 kts | 182° |
| 2026-04-24 14:54 | 50.63115 | 6.09648 | 28137 ft | 425 kts | 182° |
| 2026-04-24 14:54 | 50.60150 | 6.09702 | 28496 ft | 427 kts | 181° |
| 2026-04-24 14:54 | 50.57176 | 6.10209 | 28819 ft | 435 kts | 171° |
| 2026-04-24 14:54 | 50.54227 | 6.11358 | 29192 ft | 437 kts | 169° |
| 2026-04-24 14:55 | 50.52235 | 6.12182 | 29431 ft | 439 kts | 168° |
| 2026-04-24 14:55 | 50.48316 | 6.13820 | 29852 ft | 442 kts | 168° |
| 2026-04-24 14:55 | 50.45338 | 6.15052 | 30171 ft | 444 kts | 168° |
| 2026-04-24 14:55 | 50.42342 | 6.16273 | 30460 ft | 446 kts | 168° |
| 2026-04-24 14:56 | 50.39333 | 6.17483 | 30746 ft | 447 kts | 168° |
| 2026-04-24 14:56 | 50.36321 | 6.18684 | 31097 ft | 446 kts | 169° |
| 2026-04-24 14:56 | 50.33321 | 6.19874 | 31513 ft | 444 kts | 169° |
| 2026-04-24 14:56 | 50.30335 | 6.21054 | 31926 ft | 442 kts | 169° |
| 2026-04-24 14:57 | 50.27357 | 6.22228 | 32289 ft | 441 kts | 169° |
| 2026-04-24 14:57 | 50.24379 | 6.23400 | 32615 ft | 441 kts | 169° |
| 2026-04-24 14:57 | 50.21411 | 6.24566 | 32991 ft | 439 kts | 169° |
| 2026-04-24 14:57 | 50.18459 | 6.25725 | 33360 ft | 437 kts | 169° |
| 2026-04-24 14:58 | 50.15512 | 6.26881 | 33702 ft | 436 kts | 169° |
| 2026-04-24 14:58 | 50.12569 | 6.28034 | 34034 ft | 436 kts | 169° |
| 2026-04-24 14:58 | 50.09628 | 6.29185 | 34350 ft | 435 kts | 169° |
| 2026-04-24 14:58 | 50.06734 | 6.30316 | 34632 ft | 434 kts | 169° |
| 2026-04-24 14:59 | 50.03809 | 6.31457 | 34905 ft | 433 kts | 169° |
| 2026-04-24 14:59 | 50.00890 | 6.32595 | 35183 ft | 432 kts | 169° |
| 2026-04-24 14:59 | 49.97982 | 6.33728 | 35491 ft | 430 kts | 169° |
| 2026-04-24 14:59 | 49.95083 | 6.34855 | 35770 ft | 429 kts | 169° |
| 2026-04-24 15:00 | 49.92186 | 6.35980 | 36023 ft | 429 kts | 169° |
| 2026-04-24 15:00 | 49.89290 | 6.37104 | 36240 ft | 429 kts | 169° |
| 2026-04-24 15:00 | 49.86395 | 6.38225 | 36390 ft | 430 kts | 169° |
| 2026-04-24 15:00 | 49.83489 | 6.39348 | 36608 ft | 430 kts | 169° |
| 2026-04-24 15:01 | 49.80591 | 6.40468 | 36890 ft | 428 kts | 169° |
| 2026-04-24 15:01 | 49.77707 | 6.41583 | 37144 ft | 427 kts | 169° |
| 2026-04-24 15:01 | 49.74816 | 6.42697 | 37166 ft | 430 kts | 169° |
| 2026-04-24 15:02 | 49.68990 | 6.44937 | 37184 ft | 431 kts | 169° |
| 2026-04-24 15:02 | 49.63198 | 6.47163 | 37180 ft | 425 kts | 169° |
| 2026-04-24 15:03 | 49.57474 | 6.49356 | 37184 ft | 423 kts | 169° |
| 2026-04-24 15:03 | 49.51774 | 6.51533 | 37194 ft | 421 kts | 169° |
| 2026-04-24 15:04 | 49.46086 | 6.53700 | 37191 ft | 421 kts | 169° |
| 2026-04-24 15:04 | 49.40406 | 6.55859 | 37184 ft | 420 kts | 169° |
| 2026-04-24 15:05 | 49.34721 | 6.58015 | 37187 ft | 421 kts | 169° |
| 2026-04-24 15:05 | 49.29026 | 6.60169 | 37189 ft | 422 kts | 169° |
| 2026-04-24 15:06 | 49.23351 | 6.62312 | 37183 ft | 423 kts | 169° |
| 2026-04-24 15:06 | 49.17627 | 6.64468 | 37185 ft | 424 kts | 169° |
| 2026-04-24 15:07 | 49.11884 | 6.66626 | 37185 ft | 425 kts | 169° |
| 2026-04-24 15:07 | 49.06129 | 6.68784 | 37193 ft | 427 kts | 168° |
| 2026-04-24 15:08 | 49.00357 | 6.70943 | 37179 ft | 428 kts | 168° |
| 2026-04-24 15:08 | 48.94741 | 6.74025 | 37198 ft | 431 kts | 158° |
| 2026-04-24 15:09 | 48.89281 | 6.77849 | 37183 ft | 432 kts | 158° |
| 2026-04-24 15:09 | 48.83815 | 6.81661 | 37186 ft | 432 kts | 158° |
| 2026-04-24 15:10 | 48.78342 | 6.85416 | 37176 ft | 431 kts | 158° |
| 2026-04-24 15:10 | 48.72871 | 6.89132 | 37177 ft | 430 kts | 158° |
| 2026-04-24 15:11 | 48.67416 | 6.92823 | 37172 ft | 429 kts | 158° |
| 2026-04-24 15:11 | 48.62012 | 6.96471 | 37169 ft | 428 kts | 158° |
| 2026-04-24 15:12 | 48.56585 | 7.00127 | 37174 ft | 427 kts | 158° |
| 2026-04-24 15:12 | 48.48440 | 7.05598 | 37178 ft | 428 kts | 158° |
| 2026-04-24 15:13 | 48.43000 | 7.09242 | 37173 ft | 429 kts | 158° |
| 2026-04-24 15:13 | 48.37547 | 7.12885 | 37163 ft | 429 kts | 158° |
| 2026-04-24 15:14 | 48.32078 | 7.16532 | 37159 ft | 430 kts | 158° |
| 2026-04-24 15:14 | 48.26599 | 7.20176 | 37146 ft | 431 kts | 158° |
| 2026-04-24 15:15 | 48.21107 | 7.23820 | 37127 ft | 431 kts | 158° |
| 2026-04-24 15:15 | 48.15617 | 7.27454 | 37139 ft | 431 kts | 158° |
| 2026-04-24 15:16 | 48.10120 | 7.31084 | 37131 ft | 432 kts | 158° |
| 2026-04-24 15:16 | 48.04620 | 7.34709 | 37130 ft | 432 kts | 158° |
| 2026-04-24 15:17 | 47.99120 | 7.38324 | 37136 ft | 433 kts | 158° |
| 2026-04-24 15:17 | 47.93607 | 7.41940 | 37142 ft | 433 kts | 158° |
| 2026-04-24 15:18 | 47.88091 | 7.45549 | 37147 ft | 433 kts | 158° |
| 2026-04-24 15:18 | 47.82578 | 7.49149 | 37152 ft | 433 kts | 158° |
| 2026-04-24 15:19 | 47.77063 | 7.52742 | 37160 ft | 433 kts | 158° |
| 2026-04-24 15:19 | 47.71562 | 7.56368 | 37157 ft | 432 kts | 156° |
| 2026-04-24 15:20 | 47.66129 | 7.60198 | 37147 ft | 433 kts | 155° |
| 2026-04-24 15:20 | 47.60705 | 7.64063 | 37160 ft | 432 kts | 155° |
| 2026-04-24 15:21 | 47.55272 | 7.67901 | 37161 ft | 433 kts | 155° |
| 2026-04-24 15:21 | 47.49832 | 7.71718 | 37156 ft | 433 kts | 155° |
| 2026-04-24 15:22 | 47.44380 | 7.75527 | 37156 ft | 433 kts | 155° |
| 2026-04-24 15:23 | 47.36199 | 7.81227 | 37149 ft | 433 kts | 155° |
| 2026-04-24 15:23 | 47.28018 | 7.86908 | 37146 ft | 433 kts | 155° |
| 2026-04-24 15:25 | 47.15289 | 7.95709 | 37139 ft | 434 kts | 155° |
| 2026-04-24 15:26 | 47.00812 | 8.05661 | 37152 ft | 433 kts | 155° |
| 2026-04-24 15:27 | 46.84457 | 8.16832 | 37153 ft | 432 kts | 155° |
| 2026-04-24 15:29 | 46.68107 | 8.27926 | 37165 ft | 432 kts | 155° |
| 2026-04-24 15:31 | 46.49937 | 8.40167 | 37129 ft | 432 kts | 155° |
| 2026-04-24 15:33 | 46.28048 | 8.54796 | 37049 ft | 435 kts | 155° |
| 2026-04-24 15:34 | 46.14275 | 8.63937 | 37031 ft | 437 kts | 154° |
| 2026-04-24 15:35 | 45.99982 | 8.71335 | 37030 ft | 438 kts | 162° |
| 2026-04-24 15:36 | 45.94153 | 8.73869 | 37016 ft | 438 kts | 162° |
| 2026-04-24 15:36 | 45.85429 | 8.77750 | 37029 ft | 437 kts | 161° |
| 2026-04-24 15:37 | 45.79620 | 8.80354 | 37031 ft | 437 kts | 161° |
| 2026-04-24 15:37 | 45.73815 | 8.82953 | 37029 ft | 437 kts | 161° |
| 2026-04-24 15:38 | 45.68010 | 8.85546 | 37049 ft | 437 kts | 161° |
| 2026-04-24 15:38 | 45.62197 | 8.88135 | 37048 ft | 437 kts | 161° |
| 2026-04-24 15:39 | 45.56382 | 8.90719 | 37046 ft | 438 kts | 161° |
| 2026-04-24 15:39 | 45.50566 | 8.93298 | 37046 ft | 438 kts | 161° |
| 2026-04-24 15:40 | 45.44749 | 8.95872 | 37042 ft | 438 kts | 161° |
| 2026-04-24 15:40 | 45.38919 | 8.98446 | 37022 ft | 439 kts | 161° |
| 2026-04-24 15:41 | 45.33158 | 9.00985 | 37034 ft | 440 kts | 161° |
| 2026-04-24 15:41 | 45.27307 | 9.03557 | 37031 ft | 441 kts | 161° |
| 2026-04-24 15:42 | 45.21441 | 9.06131 | 37060 ft | 442 kts | 161° |
| 2026-04-24 15:42 | 45.15566 | 9.08702 | 37065 ft | 442 kts | 161° |
| 2026-04-24 15:43 | 45.09678 | 9.11274 | 37064 ft | 443 kts | 161° |
| 2026-04-24 15:43 | 45.03782 | 9.13844 | 37062 ft | 444 kts | 160° |
| 2026-04-24 15:44 | 44.97879 | 9.16411 | 37057 ft | 444 kts | 160° |
| 2026-04-24 15:44 | 44.91964 | 9.18978 | 37066 ft | 445 kts | 160° |
| 2026-04-24 15:45 | 44.86046 | 9.21541 | 37049 ft | 444 kts | 160° |
| 2026-04-24 15:45 | 44.80138 | 9.24094 | 37063 ft | 444 kts | 160° |
| 2026-04-24 15:46 | 44.74229 | 9.26641 | 37086 ft | 444 kts | 160° |
| 2026-04-24 15:46 | 44.68320 | 9.29184 | 37083 ft | 444 kts | 160° |
| 2026-04-24 15:47 | 44.62404 | 9.31724 | 37079 ft | 445 kts | 160° |
| 2026-04-24 15:47 | 44.56484 | 9.34260 | 37100 ft | 444 kts | 160° |
| 2026-04-24 15:48 | 44.50574 | 9.36787 | 37085 ft | 444 kts | 160° |
| 2026-04-24 15:48 | 44.44658 | 9.39311 | 37104 ft | 444 kts | 160° |
| 2026-04-24 15:49 | 44.38747 | 9.41827 | 37091 ft | 444 kts | 160° |
| 2026-04-24 15:49 | 44.32881 | 9.44319 | 37117 ft | 443 kts | 160° |
| 2026-04-24 15:50 | 44.26974 | 9.46823 | 37126 ft | 444 kts | 160° |
| 2026-04-24 15:50 | 44.21061 | 9.49325 | 37114 ft | 444 kts | 160° |
| 2026-04-24 15:51 | 44.15143 | 9.51823 | 37119 ft | 444 kts | 160° |
| 2026-04-24 15:51 | 44.09223 | 9.54317 | 37122 ft | 445 kts | 160° |
| 2026-04-24 15:52 | 44.03301 | 9.56807 | 37124 ft | 445 kts | 160° |
| 2026-04-24 15:52 | 43.97378 | 9.59292 | 37116 ft | 445 kts | 160° |
| 2026-04-24 15:53 | 43.91436 | 9.61779 | 37117 ft | 446 kts | 160° |
| 2026-04-24 15:53 | 43.85491 | 9.64263 | 37126 ft | 446 kts | 160° |
| 2026-04-24 15:54 | 43.79541 | 9.66744 | 37126 ft | 447 kts | 160° |
| 2026-04-24 15:54 | 43.73587 | 9.69221 | 37118 ft | 447 kts | 160° |
| 2026-04-24 15:55 | 43.67625 | 9.71697 | 37119 ft | 447 kts | 160° |
| 2026-04-24 15:55 | 43.61663 | 9.74168 | 37117 ft | 447 kts | 160° |
| 2026-04-24 15:56 | 43.55695 | 9.76643 | 37127 ft | 447 kts | 159° |
| 2026-04-24 15:56 | 43.49951 | 9.79842 | 37128 ft | 444 kts | 152° |
| 2026-04-24 15:57 | 43.44330 | 9.83391 | 37135 ft | 444 kts | 152° |
| 2026-04-24 15:57 | 43.38700 | 9.86924 | 37127 ft | 445 kts | 152° |
| 2026-04-24 15:58 | 43.33049 | 9.90404 | 37121 ft | 445 kts | 152° |
| 2026-04-24 15:58 | 43.27385 | 9.93856 | 37122 ft | 445 kts | 152° |
| 2026-04-24 15:59 | 43.21717 | 9.97296 | 37122 ft | 445 kts | 153° |
| 2026-04-24 15:59 | 43.16090 | 10.00705 | 37129 ft | 446 kts | 152° |
| 2026-04-24 16:00 | 43.10418 | 10.04136 | 37127 ft | 446 kts | 152° |
| 2026-04-24 16:00 | 43.04746 | 10.07560 | 37128 ft | 446 kts | 152° |
| 2026-04-24 16:01 | 42.99070 | 10.10979 | 37126 ft | 446 kts | 153° |
| 2026-04-24 16:01 | 42.93429 | 10.14371 | 37123 ft | 446 kts | 153° |
| 2026-04-24 16:02 | 42.87743 | 10.17783 | 37127 ft | 446 kts | 153° |
| 2026-04-24 16:02 | 42.82019 | 10.21211 | 37137 ft | 447 kts | 152° |
| 2026-04-24 16:03 | 42.76324 | 10.24614 | 37137 ft | 447 kts | 153° |
| 2026-04-24 16:03 | 42.70624 | 10.28014 | 37126 ft | 447 kts | 153° |
| 2026-04-24 16:04 | 42.64957 | 10.31387 | 37128 ft | 448 kts | 153° |
| 2026-04-24 16:04 | 42.59249 | 10.34778 | 37124 ft | 448 kts | 153° |
| 2026-04-24 16:05 | 42.50678 | 10.39857 | 37120 ft | 449 kts | 153° |
| 2026-04-24 16:06 | 42.42095 | 10.44927 | 37115 ft | 449 kts | 153° |
| 2026-04-24 16:07 | 42.33503 | 10.49988 | 37125 ft | 449 kts | 153° |
| 2026-04-24 16:07 | 42.24902 | 10.55038 | 37118 ft | 449 kts | 153° |
| 2026-04-24 16:08 | 42.16296 | 10.60077 | 37124 ft | 450 kts | 153° |
| 2026-04-24 16:09 | 42.07681 | 10.65106 | 37126 ft | 450 kts | 153° |
| 2026-04-24 16:09 | 42.01935 | 10.68452 | 37126 ft | 450 kts | 153° |
| 2026-04-24 16:11 | 41.87555 | 10.76797 | 37129 ft | 451 kts | 153° |
| 2026-04-24 16:11 | 41.81837 | 10.80104 | 37123 ft | 451 kts | 153° |
| 2026-04-24 16:12 | 41.73193 | 10.85090 | 37125 ft | 451 kts | 153° |
| 2026-04-24 16:13 | 41.64541 | 10.90066 | 37124 ft | 451 kts | 154° |
| 2026-04-24 16:14 | 41.53001 | 10.96681 | 37122 ft | 451 kts | 154° |
| 2026-04-24 16:14 | 41.44384 | 11.01604 | 37126 ft | 451 kts | 154° |
| 2026-04-24 16:15 | 41.35722 | 11.06538 | 37125 ft | 451 kts | 154° |
| 2026-04-24 16:16 | 41.27060 | 11.11458 | 37125 ft | 451 kts | 154° |
| 2026-04-24 16:17 | 41.13600 | 11.19075 | 37123 ft | 451 kts | 154° |
| 2026-04-24 16:18 | 41.02058 | 11.25579 | 37128 ft | 450 kts | 154° |
| 2026-04-24 16:19 | 40.93407 | 11.30438 | 37141 ft | 450 kts | 155° |
| 2026-04-24 16:20 | 40.84748 | 11.35287 | 37127 ft | 451 kts | 155° |
| 2026-04-24 16:20 | 40.76088 | 11.40123 | 37132 ft | 451 kts | 155° |
| 2026-04-24 16:21 | 40.67420 | 11.44951 | 37130 ft | 451 kts | 155° |
| 2026-04-24 16:22 | 40.61641 | 11.48161 | 37127 ft | 451 kts | 155° |
| 2026-04-24 16:22 | 40.53003 | 11.52949 | 37131 ft | 451 kts | 155° |
| 2026-04-24 16:23 | 40.47216 | 11.56149 | 37131 ft | 451 kts | 155° |
| 2026-04-24 16:24 | 40.38526 | 11.60943 | 37130 ft | 452 kts | 155° |
| 2026-04-24 16:24 | 40.32731 | 11.64132 | 37131 ft | 452 kts | 155° |
| 2026-04-24 16:25 | 40.26931 | 11.67319 | 37122 ft | 452 kts | 155° |
| 2026-04-24 16:25 | 40.21129 | 11.70501 | 37129 ft | 453 kts | 155° |
| 2026-04-24 16:26 | 40.12409 | 11.75271 | 37129 ft | 453 kts | 155° |
| 2026-04-24 16:27 | 40.03674 | 11.80037 | 37129 ft | 454 kts | 155° |
| 2026-04-24 16:27 | 39.97852 | 11.83206 | 37128 ft | 454 kts | 155° |
| 2026-04-24 16:28 | 39.92019 | 11.86377 | 37128 ft | 454 kts | 155° |
| 2026-04-24 16:28 | 39.82879 | 11.89469 | 37128 ft | 457 kts | 176° |
| 2026-04-24 16:29 | 39.76517 | 11.89710 | 37125 ft | 458 kts | 178° |
| 2026-04-24 16:30 | 39.63736 | 11.90180 | 36334 ft | 461 kts | 177° |
| 2026-04-24 16:30 | 39.60536 | 11.90325 | 35775 ft | 460 kts | 177° |
| 2026-04-24 16:30 | 39.57337 | 11.90473 | 35205 ft | 460 kts | 176° |
| 2026-04-24 16:31 | 39.54134 | 11.90623 | 34626 ft | 461 kts | 176° |
| 2026-04-24 16:31 | 39.50924 | 11.90773 | 34021 ft | 462 kts | 176° |
| 2026-04-24 16:31 | 39.47713 | 11.90923 | 33380 ft | 462 kts | 176° |
| 2026-04-24 16:31 | 39.44519 | 11.91071 | 32955 ft | 457 kts | 176° |
| 2026-04-24 16:32 | 39.41356 | 11.91217 | 32499 ft | 453 kts | 176° |
| 2026-04-24 16:32 | 39.38221 | 11.91361 | 32073 ft | 449 kts | 176° |
| 2026-04-24 16:32 | 39.35114 | 11.91504 | 31637 ft | 445 kts | 176° |
| 2026-04-24 16:32 | 39.32034 | 11.91646 | 31215 ft | 441 kts | 176° |
| 2026-04-24 16:33 | 39.28978 | 11.91787 | 30798 ft | 438 kts | 176° |
| 2026-04-24 16:33 | 39.25948 | 11.91926 | 30385 ft | 434 kts | 176° |
| 2026-04-24 16:33 | 39.22936 | 11.92064 | 29931 ft | 431 kts | 176° |
| 2026-04-24 16:33 | 39.19954 | 11.92201 | 29480 ft | 427 kts | 176° |
| 2026-04-24 16:34 | 39.17001 | 11.92337 | 29038 ft | 423 kts | 177° |
| 2026-04-24 16:34 | 39.14077 | 11.92471 | 28625 ft | 418 kts | 177° |
| 2026-04-24 16:34 | 39.11182 | 11.92604 | 28184 ft | 415 kts | 177° |
| 2026-04-24 16:34 | 39.08309 | 11.92735 | 27780 ft | 412 kts | 177° |
| 2026-04-24 16:35 | 39.05454 | 11.92866 | 27344 ft | 409 kts | 178° |
| 2026-04-24 16:35 | 39.02613 | 11.92996 | 26938 ft | 409 kts | 178° |
| 2026-04-24 16:35 | 38.99768 | 11.93126 | 26527 ft | 411 kts | 178° |
| 2026-04-24 16:35 | 38.96905 | 11.93256 | 26112 ft | 412 kts | 178° |
| 2026-04-24 16:36 | 38.94044 | 11.93387 | 25688 ft | 410 kts | 178° |
| 2026-04-24 16:36 | 38.91196 | 11.93517 | 25271 ft | 409 kts | 178° |
| 2026-04-24 16:36 | 38.88357 | 11.93646 | 24860 ft | 408 kts | 179° |
| 2026-04-24 16:36 | 38.85526 | 11.93774 | 24437 ft | 406 kts | 179° |
| 2026-04-24 16:37 | 38.82741 | 11.93901 | 24039 ft | 405 kts | 179° |
| 2026-04-24 16:37 | 38.79927 | 11.94028 | 23597 ft | 404 kts | 179° |
| 2026-04-24 16:37 | 38.77121 | 11.94155 | 23116 ft | 403 kts | 179° |
| 2026-04-24 16:37 | 38.74327 | 11.94282 | 22677 ft | 400 kts | 179° |
| 2026-04-24 16:38 | 38.71556 | 11.94407 | 22253 ft | 397 kts | 179° |
| 2026-04-24 16:38 | 38.68811 | 11.94531 | 21851 ft | 393 kts | 179° |
| 2026-04-24 16:38 | 38.66093 | 11.94654 | 21442 ft | 389 kts | 179° |
| 2026-04-24 16:38 | 38.63397 | 11.94776 | 21043 ft | 386 kts | 179° |
| 2026-04-24 16:39 | 38.60723 | 11.94896 | 20644 ft | 383 kts | 179° |
| 2026-04-24 16:39 | 38.58071 | 11.95024 | 20253 ft | 380 kts | 176° |
| 2026-04-24 16:39 | 38.55509 | 11.95766 | 19837 ft | 378 kts | 155° |
| 2026-04-24 16:39 | 38.53246 | 11.97432 | 19498 ft | 374 kts | 146° |
| 2026-04-24 16:40 | 38.51096 | 11.99285 | 19101 ft | 372 kts | 145° |
| 2026-04-24 16:40 | 38.49015 | 12.01115 | 18724 ft | 370 kts | 144° |
| 2026-04-24 16:40 | 38.46895 | 12.02967 | 18330 ft | 368 kts | 145° |
| 2026-04-24 16:40 | 38.44780 | 12.04793 | 17899 ft | 366 kts | 145° |
| 2026-04-24 16:41 | 38.42669 | 12.06598 | 17489 ft | 364 kts | 145° |
| 2026-04-24 16:41 | 38.40567 | 12.08385 | 17083 ft | 362 kts | 145° |
| 2026-04-24 16:41 | 38.38479 | 12.10154 | 16699 ft | 359 kts | 145° |
| 2026-04-24 16:41 | 38.36403 | 12.11911 | 16311 ft | 357 kts | 145° |
| 2026-04-24 16:42 | 38.34341 | 12.13656 | 15929 ft | 355 kts | 145° |
| 2026-04-24 16:42 | 38.32293 | 12.15389 | 15554 ft | 353 kts | 145° |
| 2026-04-24 16:42 | 38.30258 | 12.17112 | 15184 ft | 350 kts | 145° |
| 2026-04-24 16:42 | 38.28232 | 12.18827 | 14813 ft | 348 kts | 145° |
| 2026-04-24 16:43 | 38.26218 | 12.20531 | 14438 ft | 347 kts | 145° |
| 2026-04-24 16:43 | 38.24212 | 12.22227 | 14064 ft | 346 kts | 145° |
| 2026-04-24 16:43 | 38.22215 | 12.23914 | 13673 ft | 344 kts | 145° |
| 2026-04-24 16:43 | 38.20225 | 12.25594 | 13269 ft | 342 kts | 145° |
| 2026-04-24 16:44 | 38.18273 | 12.27241 | 12885 ft | 340 kts | 145° |
| 2026-04-24 16:44 | 38.16306 | 12.28899 | 12507 ft | 338 kts | 145° |
| 2026-04-24 16:44 | 38.14350 | 12.30548 | 12135 ft | 336 kts | 145° |
| 2026-04-24 16:44 | 38.12405 | 12.32186 | 11773 ft | 334 kts | 146° |
| 2026-04-24 16:45 | 38.10475 | 12.33810 | 11402 ft | 332 kts | 146° |
| 2026-04-24 16:45 | 38.08552 | 12.35428 | 10996 ft | 331 kts | 145° |
| 2026-04-24 16:45 | 38.06629 | 12.37045 | 10593 ft | 331 kts | 145° |
| 2026-04-24 16:45 | 38.04730 | 12.38639 | 10420 ft | 323 kts | 146° |
| 2026-04-24 16:46 | 38.02879 | 12.40192 | 10260 ft | 315 kts | 145° |
| 2026-04-24 16:46 | 38.01078 | 12.41703 | 10129 ft | 306 kts | 146° |
| 2026-04-24 16:46 | 37.99328 | 12.43171 | 9996 ft | 298 kts | 146° |
| 2026-04-24 16:46 | 37.97632 | 12.44592 | 9895 ft | 288 kts | 146° |
| 2026-04-24 16:47 | 37.95941 | 12.46010 | 9459 ft | 291 kts | 146° |
| 2026-04-24 16:47 | 37.94256 | 12.47422 | 9141 ft | 290 kts | 145° |
| 2026-04-24 16:47 | 37.92574 | 12.48828 | 8844 ft | 289 kts | 145° |
| 2026-04-24 16:47 | 37.90902 | 12.50226 | 8541 ft | 288 kts | 145° |
| 2026-04-24 16:48 | 37.89228 | 12.51603 | 8245 ft | 286 kts | 148° |
| 2026-04-24 16:48 | 37.87487 | 12.52816 | 7973 ft | 285 kts | 152° |
| 2026-04-24 16:48 | 37.85725 | 12.53960 | 7692 ft | 284 kts | 152° |
| 2026-04-24 16:48 | 37.83969 | 12.55093 | 7404 ft | 283 kts | 152° |
| 2026-04-24 16:49 | 37.82225 | 12.56227 | 7132 ft | 281 kts | 152° |
| 2026-04-24 16:49 | 37.80494 | 12.57360 | 6851 ft | 280 kts | 151° |
| 2026-04-24 16:49 | 37.78768 | 12.58495 | 6587 ft | 279 kts | 150° |
| 2026-04-24 16:49 | 37.77048 | 12.59630 | 6311 ft | 278 kts | 150° |
| 2026-04-24 16:50 | 37.75915 | 12.60378 | 6118 ft | 277 kts | 151° |
| 2026-04-24 16:50 | 37.73639 | 12.61881 | 5743 ft | 275 kts | 151° |
| 2026-04-24 16:50 | 37.71952 | 12.62995 | 5468 ft | 272 kts | 150° |
| 2026-04-24 16:50 | 37.70464 | 12.64424 | 5182 ft | 269 kts | 127° |
| 2026-04-24 16:51 | 37.69661 | 12.66504 | 4929 ft | 263 kts | 102° |
| 2026-04-24 16:51 | 37.69619 | 12.68764 | 4781 ft | 255 kts | 78° |
| 2026-04-24 16:51 | 37.70252 | 12.70796 | 4647 ft | 247 kts | 56° |
| 2026-04-24 16:51 | 37.71417 | 12.72323 | 4541 ft | 239 kts | 34° |
| 2026-04-24 16:52 | 37.72906 | 12.73153 | 4408 ft | 232 kts | 12° |
| 2026-04-24 16:52 | 37.74483 | 12.73216 | 4314 ft | 224 kts | 351° |
| 2026-04-24 16:52 | 37.75953 | 12.72627 | 4177 ft | 220 kts | 335° |
| 2026-04-24 16:52 | 37.77206 | 12.71526 | 3926 ft | 221 kts | 317° |
| 2026-04-24 16:53 | 37.78215 | 12.70062 | 3695 ft | 221 kts | 309° |
| 2026-04-24 16:53 | 37.79130 | 12.68527 | 3584 ft | 213 kts | 309° |
| 2026-04-24 16:53 | 37.79990 | 12.67048 | 3428 ft | 205 kts | 309° |
| 2026-04-24 16:53 | 37.80824 | 12.65650 | 3190 ft | 199 kts | 311° |
| 2026-04-24 16:54 | 37.81660 | 12.64276 | 2933 ft | 196 kts | 312° |
| 2026-04-24 16:54 | 37.82495 | 12.62911 | 2650 ft | 195 kts | 311° |
| 2026-04-24 16:54 | 37.83317 | 12.61568 | 2392 ft | 192 kts | 311° |
| 2026-04-24 16:54 | 37.84127 | 12.60243 | 2146 ft | 189 kts | 312° |
| 2026-04-24 16:55 | 37.84928 | 12.58935 | 1887 ft | 186 kts | 312° |
| 2026-04-24 16:55 | 37.85714 | 12.57650 | 1639 ft | 182 kts | 311° |
| 2026-04-24 16:55 | 37.86467 | 12.56417 | 1402 ft | 171 kts | 311° |
| 2026-04-24 16:55 | 37.87162 | 12.55282 | 1176 ft | 158 kts | 311° |
| 2026-04-24 16:56 | 37.87818 | 12.54214 | 969 ft | 151 kts | 311° |
| 2026-04-24 16:56 | 37.88456 | 12.53171 | 758 ft | 149 kts | 311° |
| 2026-04-24 16:56 | 37.89092 | 12.52129 | 572 ft | 149 kts | 312° |
| 2026-04-24 16:56 | 37.89728 | 12.51090 | 348 ft | 149 kts | 312° |
| 2026-04-24 16:57 | 37.90352 | 12.50073 | 123 ft | 144 kts | 313° |
| 2026-04-24 16:57 | 37.90945 | 12.49113 | 26 ft | 120 kts | 308° |
| 2026-04-24 16:57 | 37.91326 | 12.48498 | 27 ft | 57 kts | 308° |
| 2026-04-24 16:57 | 37.91467 | 12.48292 | 21 ft | 12 kts | 322° |
| 2026-04-24 16:58 | 37.91461 | 12.48267 | 22 ft | 4 kts | 164° |
| 2026-04-24 16:58 | 37.91443 | 12.48298 | 21 ft | 5 kts | 123° |
| 2026-04-24 16:58 | 37.91424 | 12.48335 | 22 ft | 5 kts | 124° |
| 2026-04-24 16:58 | 37.91398 | 12.48378 | 25 ft | 8 kts | 128° |
| 2026-04-24 16:59 | 37.91358 | 12.48444 | 26 ft | 12 kts | 128° |
| 2026-04-24 16:59 | 37.91294 | 12.48548 | 26 ft | 18 kts | 128° |
| 2026-04-24 16:59 | 37.91096 | 12.48868 | 26 ft | 27 kts | 128° |
| 2026-04-24 17:00 | 37.90982 | 12.49052 | 27 ft | 26 kts | 128° |
| 2026-04-24 17:00 | 37.90764 | 12.49373 | 32 ft | 23 kts | 142° |
| 2026-04-24 17:00 | 37.90627 | 12.49465 | 35 ft | 22 kts | 159° |
| 2026-04-24 17:01 | 37.90354 | 12.49603 | 30 ft | 22 kts | 128° |
| 2026-04-24 17:01 | 37.90259 | 12.49733 | 28 ft | 13 kts | 138° |
| 2026-04-24 17:02 | 37.90203 | 12.49716 | 28 ft | 0 kts | 277° |